sensor_id;sensor_type;location;lat;lon;timestamp;P1;durP1;ratioP1;P2;durP2;ratioP2
35239;SDS011;21376;50.954;4.716;2022-08-19T00:01:31;34.58;;;31.02;;
35239;SDS011;21376;50.954;4.716;2022-08-19T00:04:00;37.08;;;32.00;;
35239;SDS011;21376;50.954;4.716;2022-08-19T00:06:35;37.50;;;33.42;;
35239;SDS011;21376;50.954;4.716;2022-08-19T00:09:03;41.45;;;35.67;;
35239;SDS011;21376;50.954;4.716;2022-08-19T00:11:32;36.83;;;32.40;;
35239;SDS011;21376;50.954;4.716;2022-08-19T00:14:03;44.55;;;36.50;;
35239;SDS011;21376;50.954;4.716;2022-08-19T00:16:34;43.10;;;37.13;;
35239;SDS011;21376;50.954;4.716;2022-08-19T00:19:06;47.72;;;38.25;;
35239;SDS011;21376;50.954;4.716;2022-08-19T00:21:33;44.75;;;37.65;;
35239;SDS011;21376;50.954;4.716;2022-08-19T00:24:05;53.78;;;38.75;;
35239;SDS011;21376;50.954;4.716;2022-08-19T00:26:38;47.72;;;37.60;;
35239;SDS011;21376;50.954;4.716;2022-08-19T00:29:07;47.53;;;37.60;;
35239;SDS011;21376;50.954;4.716;2022-08-19T00:31:35;45.38;;;36.28;;
35239;SDS011;21376;50.954;4.716;2022-08-19T00:34:01;46.20;;;36.10;;
35239;SDS011;21376;50.954;4.716;2022-08-19T00:36:31;51.40;;;37.08;;
35239;SDS011;21376;50.954;4.716;2022-08-19T00:39:17;46.80;;;35.92;;
35239;SDS011;21376;50.954;4.716;2022-08-19T00:41:46;47.63;;;37.03;;
35239;SDS011;21376;50.954;4.716;2022-08-19T00:46:46;58.58;;;37.80;;
35239;SDS011;21376;50.954;4.716;2022-08-19T00:51:51;58.20;;;39.63;;
35239;SDS011;21376;50.954;4.716;2022-08-19T00:54:21;61.03;;;39.80;;
35239;SDS011;21376;50.954;4.716;2022-08-19T00:56:47;51.42;;;38.60;;
35239;SDS011;21376;50.954;4.716;2022-08-19T00:59:16;64.43;;;39.35;;
35239;SDS011;21376;50.954;4.716;2022-08-19T01:01:44;58.58;;;39.75;;
35239;SDS011;21376;50.954;4.716;2022-08-19T01:04:12;59.65;;;40.40;;
35239;SDS011;21376;50.954;4.716;2022-08-19T01:06:38;63.20;;;42.72;;
35239;SDS011;21376;50.954;4.716;2022-08-19T01:09:06;61.58;;;40.60;;
35239;SDS011;21376;50.954;4.716;2022-08-19T01:11:34;63.92;;;42.15;;
35239;SDS011;21376;50.954;4.716;2022-08-19T01:14:04;71.10;;;42.97;;
35239;SDS011;21376;50.954;4.716;2022-08-19T01:16:33;66.05;;;43.22;;
35239;SDS011;21376;50.954;4.716;2022-08-19T01:19:01;68.57;;;43.65;;
35239;SDS011;21376;50.954;4.716;2022-08-19T01:21:34;68.57;;;43.50;;
35239;SDS011;21376;50.954;4.716;2022-08-19T01:24:09;67.53;;;44.85;;
35239;SDS011;21376;50.954;4.716;2022-08-19T01:26:39;69.63;;;44.58;;
35239;SDS011;21376;50.954;4.716;2022-08-19T01:29:08;71.43;;;45.03;;
35239;SDS011;21376;50.954;4.716;2022-08-19T01:31:36;74.10;;;44.63;;
35239;SDS011;21376;50.954;4.716;2022-08-19T01:34:04;78.70;;;45.53;;
35239;SDS011;21376;50.954;4.716;2022-08-19T01:36:33;78.82;;;47.00;;
35239;SDS011;21376;50.954;4.716;2022-08-19T01:39:03;92.82;;;49.72;;
35239;SDS011;21376;50.954;4.716;2022-08-19T01:41:32;85.80;;;48.42;;
35239;SDS011;21376;50.954;4.716;2022-08-19T01:43:58;87.18;;;50.17;;
35239;SDS011;21376;50.954;4.716;2022-08-19T01:46:30;83.45;;;49.13;;
35239;SDS011;21376;50.954;4.716;2022-08-19T01:49:04;78.78;;;46.60;;
35239;SDS011;21376;50.954;4.716;2022-08-19T01:51:30;87.15;;;50.40;;
35239;SDS011;21376;50.954;4.716;2022-08-19T01:53:57;93.00;;;51.58;;
35239;SDS011;21376;50.954;4.716;2022-08-19T01:56:26;103.80;;;55.13;;
35239;SDS011;21376;50.954;4.716;2022-08-19T01:58:55;96.20;;;53.38;;
35239;SDS011;21376;50.954;4.716;2022-08-19T02:01:26;109.60;;;56.33;;
35239;SDS011;21376;50.954;4.716;2022-08-19T02:03:56;101.60;;;53.28;;
35239;SDS011;21376;50.954;4.716;2022-08-19T02:06:23;102.82;;;53.55;;
35239;SDS011;21376;50.954;4.716;2022-08-19T02:08:49;91.25;;;51.70;;
35239;SDS011;21376;50.954;4.716;2022-08-19T02:11:20;121.20;;;57.58;;
35239;SDS011;21376;50.954;4.716;2022-08-19T02:13:50;112.15;;;55.50;;
35239;SDS011;21376;50.954;4.716;2022-08-19T02:16:16;118.95;;;57.50;;
35239;SDS011;21376;50.954;4.716;2022-08-19T02:18:43;127.63;;;57.53;;
35239;SDS011;21376;50.954;4.716;2022-08-19T02:21:10;113.28;;;57.00;;
35239;SDS011;21376;50.954;4.716;2022-08-19T02:23:37;134.18;;;60.58;;
35239;SDS011;21376;50.954;4.716;2022-08-19T02:26:04;139.70;;;62.63;;
35239;SDS011;21376;50.954;4.716;2022-08-19T02:28:32;139.32;;;61.10;;
35239;SDS011;21376;50.954;4.716;2022-08-19T02:30:58;125.10;;;58.70;;
35239;SDS011;21376;50.954;4.716;2022-08-19T02:33:25;115.47;;;53.50;;
35239;SDS011;21376;50.954;4.716;2022-08-19T02:35:52;112.57;;;53.67;;
35239;SDS011;21376;50.954;4.716;2022-08-19T02:38:21;128.13;;;58.17;;
35239;SDS011;21376;50.954;4.716;2022-08-19T02:41:00;126.10;;;56.67;;
35239;SDS011;21376;50.954;4.716;2022-08-19T02:43:36;134.43;;;57.65;;
35239;SDS011;21376;50.954;4.716;2022-08-19T02:46:24;120.18;;;55.90;;
35239;SDS011;21376;50.954;4.716;2022-08-19T02:48:52;133.77;;;56.10;;
35239;SDS011;21376;50.954;4.716;2022-08-19T02:51:28;135.30;;;57.17;;
35239;SDS011;21376;50.954;4.716;2022-08-19T02:53:56;127.78;;;55.33;;
35239;SDS011;21376;50.954;4.716;2022-08-19T02:56:24;128.52;;;56.45;;
35239;SDS011;21376;50.954;4.716;2022-08-19T02:58:54;139.55;;;57.63;;
35239;SDS011;21376;50.954;4.716;2022-08-19T03:01:28;141.30;;;57.80;;
35239;SDS011;21376;50.954;4.716;2022-08-19T03:03:56;157.30;;;59.03;;
35239;SDS011;21376;50.954;4.716;2022-08-19T03:06:23;165.27;;;61.17;;
35239;SDS011;21376;50.954;4.716;2022-08-19T03:08:51;138.98;;;57.25;;
35239;SDS011;21376;50.954;4.716;2022-08-19T03:11:29;152.63;;;58.88;;
35239;SDS011;21376;50.954;4.716;2022-08-19T03:14:00;149.27;;;58.78;;
35239;SDS011;21376;50.954;4.716;2022-08-19T03:16:31;152.02;;;62.25;;
35239;SDS011;21376;50.954;4.716;2022-08-19T03:18:59;163.10;;;62.50;;
35239;SDS011;21376;50.954;4.716;2022-08-19T03:21:27;151.55;;;59.97;;
35239;SDS011;21376;50.954;4.716;2022-08-19T03:24:00;142.25;;;59.00;;
35239;SDS011;21376;50.954;4.716;2022-08-19T03:26:29;200.32;;;65.90;;
35239;SDS011;21376;50.954;4.716;2022-08-19T03:28:56;196.25;;;65.53;;
35239;SDS011;21376;50.954;4.716;2022-08-19T03:31:22;192.77;;;69.00;;
35239;SDS011;21376;50.954;4.716;2022-08-19T03:33:50;155.05;;;59.80;;
35239;SDS011;21376;50.954;4.716;2022-08-19T03:36:17;140.93;;;57.60;;
35239;SDS011;21376;50.954;4.716;2022-08-19T03:38:51;169.77;;;61.92;;
35239;SDS011;21376;50.954;4.716;2022-08-19T03:41:20;164.63;;;62.50;;
35239;SDS011;21376;50.954;4.716;2022-08-19T03:43:50;148.05;;;57.33;;
35239;SDS011;21376;50.954;4.716;2022-08-19T03:46:19;150.93;;;60.78;;
35239;SDS011;21376;50.954;4.716;2022-08-19T03:49:00;160.75;;;61.13;;
35239;SDS011;21376;50.954;4.716;2022-08-19T03:51:30;180.48;;;63.38;;
35239;SDS011;21376;50.954;4.716;2022-08-19T03:53:59;169.90;;;61.97;;
35239;SDS011;21376;50.954;4.716;2022-08-19T03:58:56;158.02;;;59.83;;
35239;SDS011;21376;50.954;4.716;2022-08-19T04:01:26;163.82;;;59.95;;
35239;SDS011;21376;50.954;4.716;2022-08-19T04:03:57;176.45;;;63.40;;
35239;SDS011;21376;50.954;4.716;2022-08-19T04:06:29;208.10;;;68.40;;
35239;SDS011;21376;50.954;4.716;2022-08-19T04:08:58;185.98;;;64.70;;
35239;SDS011;21376;50.954;4.716;2022-08-19T04:11:26;193.90;;;66.70;;
35239;SDS011;21376;50.954;4.716;2022-08-19T04:13:59;176.77;;;64.00;;
35239;SDS011;21376;50.954;4.716;2022-08-19T04:16:26;177.88;;;63.33;;
35239;SDS011;21376;50.954;4.716;2022-08-19T04:18:54;145.27;;;58.58;;
35239;SDS011;21376;50.954;4.716;2022-08-19T04:21:24;155.85;;;58.88;;
35239;SDS011;21376;50.954;4.716;2022-08-19T04:23:52;137.57;;;56.30;;
35239;SDS011;21376;50.954;4.716;2022-08-19T04:26:22;147.65;;;58.45;;
35239;SDS011;21376;50.954;4.716;2022-08-19T04:28:53;157.65;;;59.47;;
35239;SDS011;21376;50.954;4.716;2022-08-19T04:31:27;150.05;;;58.15;;
35239;SDS011;21376;50.954;4.716;2022-08-19T04:33:59;175.35;;;60.30;;
35239;SDS011;21376;50.954;4.716;2022-08-19T04:36:30;185.88;;;59.65;;
35239;SDS011;21376;50.954;4.716;2022-08-19T04:39:01;186.00;;;59.03;;
35239;SDS011;21376;50.954;4.716;2022-08-19T04:44:18;161.57;;;56.35;;
35239;SDS011;21376;50.954;4.716;2022-08-19T04:46:48;149.43;;;54.20;;
35239;SDS011;21376;50.954;4.716;2022-08-19T04:49:17;134.55;;;53.17;;
35239;SDS011;21376;50.954;4.716;2022-08-19T04:51:45;132.27;;;53.20;;
35239;SDS011;21376;50.954;4.716;2022-08-19T04:54:14;124.95;;;51.83;;
35239;SDS011;21376;50.954;4.716;2022-08-19T04:56:44;120.38;;;49.28;;
35239;SDS011;21376;50.954;4.716;2022-08-19T04:59:11;118.05;;;49.55;;
35239;SDS011;21376;50.954;4.716;2022-08-19T05:01:41;97.25;;;44.25;;
35239;SDS011;21376;50.954;4.716;2022-08-19T05:04:08;102.22;;;45.50;;
35239;SDS011;21376;50.954;4.716;2022-08-19T05:06:38;92.85;;;43.92;;
35239;SDS011;21376;50.954;4.716;2022-08-19T05:09:04;93.43;;;45.05;;
35239;SDS011;21376;50.954;4.716;2022-08-19T05:11:35;90.00;;;42.33;;
35239;SDS011;21376;50.954;4.716;2022-08-19T05:14:16;97.87;;;43.30;;
35239;SDS011;21376;50.954;4.716;2022-08-19T05:16:42;88.88;;;40.17;;
35239;SDS011;21376;50.954;4.716;2022-08-19T05:19:08;79.93;;;40.20;;
35239;SDS011;21376;50.954;4.716;2022-08-19T05:21:52;71.40;;;37.22;;
35239;SDS011;21376;50.954;4.716;2022-08-19T05:24:43;71.82;;;35.33;;
35239;SDS011;21376;50.954;4.716;2022-08-19T05:27:20;64.05;;;33.72;;
35239;SDS011;21376;50.954;4.716;2022-08-19T05:29:46;64.22;;;33.50;;
35239;SDS011;21376;50.954;4.716;2022-08-19T05:32:36;64.85;;;32.92;;
35239;SDS011;21376;50.954;4.716;2022-08-19T05:35:02;60.97;;;31.27;;
35239;SDS011;21376;50.954;4.716;2022-08-19T05:37:31;51.38;;;29.85;;
35239;SDS011;21376;50.954;4.716;2022-08-19T05:39:57;47.55;;;29.20;;
35239;SDS011;21376;50.954;4.716;2022-08-19T05:42:24;46.08;;;28.25;;
35239;SDS011;21376;50.954;4.716;2022-08-19T05:47:22;42.63;;;26.75;;
35239;SDS011;21376;50.954;4.716;2022-08-19T05:49:49;50.15;;;27.35;;
35239;SDS011;21376;50.954;4.716;2022-08-19T05:52:16;44.03;;;23.90;;
35239;SDS011;21376;50.954;4.716;2022-08-19T05:54:43;41.72;;;25.00;;
35239;SDS011;21376;50.954;4.716;2022-08-19T05:57:10;41.63;;;26.45;;
35239;SDS011;21376;50.954;4.716;2022-08-19T05:59:36;44.72;;;24.95;;
35239;SDS011;21376;50.954;4.716;2022-08-19T06:02:03;37.42;;;24.55;;
35239;SDS011;21376;50.954;4.716;2022-08-19T06:04:32;36.25;;;23.92;;
35239;SDS011;21376;50.954;4.716;2022-08-19T06:06:58;41.20;;;22.95;;
35239;SDS011;21376;50.954;4.716;2022-08-19T06:09:24;36.17;;;23.13;;
35239;SDS011;21376;50.954;4.716;2022-08-19T06:11:54;37.70;;;24.52;;
35239;SDS011;21376;50.954;4.716;2022-08-19T06:14:27;36.58;;;23.10;;
35239;SDS011;21376;50.954;4.716;2022-08-19T06:16:58;39.80;;;23.05;;
35239;SDS011;21376;50.954;4.716;2022-08-19T06:19:30;35.20;;;21.48;;
35239;SDS011;21376;50.954;4.716;2022-08-19T06:21:57;33.75;;;20.65;;
35239;SDS011;21376;50.954;4.716;2022-08-19T06:24:27;26.90;;;18.75;;
35239;SDS011;21376;50.954;4.716;2022-08-19T06:26:56;34.22;;;20.98;;
35239;SDS011;21376;50.954;4.716;2022-08-19T06:29:23;24.88;;;18.63;;
35239;SDS011;21376;50.954;4.716;2022-08-19T06:31:54;29.48;;;20.77;;
35239;SDS011;21376;50.954;4.716;2022-08-19T06:34:21;30.27;;;19.30;;
35239;SDS011;21376;50.954;4.716;2022-08-19T06:36:48;29.25;;;18.02;;
35239;SDS011;21376;50.954;4.716;2022-08-19T06:39:20;28.73;;;17.42;;
35239;SDS011;21376;50.954;4.716;2022-08-19T06:41:51;21.53;;;15.43;;
35239;SDS011;21376;50.954;4.716;2022-08-19T06:44:19;26.13;;;16.95;;
35239;SDS011;21376;50.954;4.716;2022-08-19T06:46:47;24.25;;;15.43;;
35239;SDS011;21376;50.954;4.716;2022-08-19T06:49:16;25.02;;;15.57;;
35239;SDS011;21376;50.954;4.716;2022-08-19T06:51:44;27.92;;;15.38;;
35239;SDS011;21376;50.954;4.716;2022-08-19T06:54:16;22.48;;;15.13;;
35239;SDS011;21376;50.954;4.716;2022-08-19T06:56:43;26.63;;;17.48;;
35239;SDS011;21376;50.954;4.716;2022-08-19T06:59:12;27.23;;;17.02;;
35239;SDS011;21376;50.954;4.716;2022-08-19T07:01:42;25.65;;;14.70;;
35239;SDS011;21376;50.954;4.716;2022-08-19T07:04:10;24.52;;;14.75;;
35239;SDS011;21376;50.954;4.716;2022-08-19T07:09:07;19.98;;;14.05;;
35239;SDS011;21376;50.954;4.716;2022-08-19T07:11:35;19.15;;;12.98;;
35239;SDS011;21376;50.954;4.716;2022-08-19T07:14:01;27.65;;;13.18;;
35239;SDS011;21376;50.954;4.716;2022-08-19T07:16:27;17.77;;;12.10;;
35239;SDS011;21376;50.954;4.716;2022-08-19T07:18:55;15.57;;;10.68;;
35239;SDS011;21376;50.954;4.716;2022-08-19T07:21:23;15.32;;;11.25;;
35239;SDS011;21376;50.954;4.716;2022-08-19T07:23:54;14.13;;;10.15;;
35239;SDS011;21376;50.954;4.716;2022-08-19T07:26:37;14.05;;;10.55;;
35239;SDS011;21376;50.954;4.716;2022-08-19T07:29:05;12.65;;;10.35;;
35239;SDS011;21376;50.954;4.716;2022-08-19T07:31:32;14.95;;;9.18;;
35239;SDS011;21376;50.954;4.716;2022-08-19T07:34:03;15.00;;;8.85;;
35239;SDS011;21376;50.954;4.716;2022-08-19T07:36:36;18.02;;;8.70;;
35239;SDS011;21376;50.954;4.716;2022-08-19T07:39:05;12.85;;;8.02;;
35239;SDS011;21376;50.954;4.716;2022-08-19T07:41:36;12.55;;;8.20;;
35239;SDS011;21376;50.954;4.716;2022-08-19T07:44:04;15.00;;;9.25;;
35239;SDS011;21376;50.954;4.716;2022-08-19T07:46:34;10.18;;;7.25;;
35239;SDS011;21376;50.954;4.716;2022-08-19T07:49:03;14.07;;;7.18;;
35239;SDS011;21376;50.954;4.716;2022-08-19T07:51:30;12.38;;;5.90;;
35239;SDS011;21376;50.954;4.716;2022-08-19T07:53:59;7.15;;;5.53;;
35239;SDS011;21376;50.954;4.716;2022-08-19T07:56:27;11.20;;;6.25;;
35239;SDS011;21376;50.954;4.716;2022-08-19T07:58:55;10.93;;;5.15;;
35239;SDS011;21376;50.954;4.716;2022-08-19T08:01:23;19.75;;;6.03;;
35239;SDS011;21376;50.954;4.716;2022-08-19T08:03:51;10.27;;;5.68;;
35239;SDS011;21376;50.954;4.716;2022-08-19T08:06:55;10.85;;;6.07;;
35239;SDS011;21376;50.954;4.716;2022-08-19T08:12:16;10.77;;;5.38;;
35239;SDS011;21376;50.954;4.716;2022-08-19T08:15:07;10.02;;;5.40;;
35239;SDS011;21376;50.954;4.716;2022-08-19T08:17:36;8.63;;;4.90;;
35239;SDS011;21376;50.954;4.716;2022-08-19T08:22:36;7.28;;;5.07;;
35239;SDS011;21376;50.954;4.716;2022-08-19T08:28:04;12.13;;;5.65;;
35239;SDS011;21376;50.954;4.716;2022-08-19T08:33:03;10.20;;;4.75;;
35239;SDS011;21376;50.954;4.716;2022-08-19T08:35:29;9.50;;;4.65;;
35239;SDS011;21376;50.954;4.716;2022-08-19T08:37:55;9.68;;;5.03;;
35239;SDS011;21376;50.954;4.716;2022-08-19T08:40:38;5.90;;;4.75;;
35239;SDS011;21376;50.954;4.716;2022-08-19T08:52:05;5.78;;;3.95;;
35239;SDS011;21376;50.954;4.716;2022-08-19T08:54:45;6.60;;;4.65;;
35239;SDS011;21376;50.954;4.716;2022-08-19T09:00:12;6.60;;;4.10;;
35239;SDS011;21376;50.954;4.716;2022-08-19T09:02:43;7.15;;;5.13;;
35239;SDS011;21376;50.954;4.716;2022-08-19T09:10:22;6.78;;;4.70;;
35239;SDS011;21376;50.954;4.716;2022-08-19T09:13:07;6.38;;;4.70;;
35239;SDS011;21376;50.954;4.716;2022-08-19T09:18:23;7.40;;;4.25;;
35239;SDS011;21376;50.954;4.716;2022-08-19T09:31:25;6.70;;;3.95;;
35239;SDS011;21376;50.954;4.716;2022-08-19T09:34:10;11.15;;;4.40;;
35239;SDS011;21376;50.954;4.716;2022-08-19T09:36:38;6.47;;;3.95;;
35239;SDS011;21376;50.954;4.716;2022-08-19T09:39:05;8.23;;;4.28;;
35239;SDS011;21376;50.954;4.716;2022-08-19T09:41:33;7.85;;;4.30;;
35239;SDS011;21376;50.954;4.716;2022-08-19T09:46:31;9.68;;;4.68;;
35239;SDS011;21376;50.954;4.716;2022-08-19T09:49:00;8.32;;;4.68;;
35239;SDS011;21376;50.954;4.716;2022-08-19T09:54:02;8.27;;;4.60;;
35239;SDS011;21376;50.954;4.716;2022-08-19T10:01:45;8.05;;;4.93;;
35239;SDS011;21376;50.954;4.716;2022-08-19T10:10:12;6.65;;;4.65;;
35239;SDS011;21376;50.954;4.716;2022-08-19T10:15:13;9.48;;;5.68;;
35239;SDS011;21376;50.954;4.716;2022-08-19T10:17:43;10.02;;;4.95;;
35239;SDS011;21376;50.954;4.716;2022-08-19T10:20:10;9.82;;;4.53;;
35239;SDS011;21376;50.954;4.716;2022-08-19T10:22:39;8.32;;;4.93;;
35239;SDS011;21376;50.954;4.716;2022-08-19T10:25:12;8.57;;;4.32;;
35239;SDS011;21376;50.954;4.716;2022-08-19T10:27:42;7.97;;;5.60;;
35239;SDS011;21376;50.954;4.716;2022-08-19T10:30:09;9.45;;;4.93;;
35239;SDS011;21376;50.954;4.716;2022-08-19T10:35:08;9.68;;;4.75;;
35239;SDS011;21376;50.954;4.716;2022-08-19T10:37:35;7.53;;;5.15;;
35239;SDS011;21376;50.954;4.716;2022-08-19T10:45:04;11.93;;;5.30;;
35239;SDS011;21376;50.954;4.716;2022-08-19T10:50:02;9.30;;;4.63;;
35239;SDS011;21376;50.954;4.716;2022-08-19T10:52:50;7.93;;;5.22;;
35239;SDS011;21376;50.954;4.716;2022-08-19T10:55:21;6.88;;;4.45;;
35239;SDS011;21376;50.954;4.716;2022-08-19T10:58:13;6.15;;;4.20;;
35239;SDS011;21376;50.954;4.716;2022-08-19T11:06:08;8.05;;;3.92;;
35239;SDS011;21376;50.954;4.716;2022-08-19T11:08:40;7.72;;;4.05;;
35239;SDS011;21376;50.954;4.716;2022-08-19T11:11:17;10.73;;;4.35;;
35239;SDS011;21376;50.954;4.716;2022-08-19T11:13:43;6.22;;;4.22;;
35239;SDS011;21376;50.954;4.716;2022-08-19T11:16:13;5.93;;;4.32;;
35239;SDS011;21376;50.954;4.716;2022-08-19T11:18:42;5.43;;;4.65;;
35239;SDS011;21376;50.954;4.716;2022-08-19T11:21:16;5.25;;;4.05;;
35239;SDS011;21376;50.954;4.716;2022-08-19T11:28:48;6.55;;;3.55;;
35239;SDS011;21376;50.954;4.716;2022-08-19T11:31:21;8.50;;;3.88;;
35239;SDS011;21376;50.954;4.716;2022-08-19T11:36:59;5.88;;;3.75;;
35239;SDS011;21376;50.954;4.716;2022-08-19T11:39:28;4.47;;;3.05;;
35239;SDS011;21376;50.954;4.716;2022-08-19T11:42:03;4.22;;;2.60;;
35239;SDS011;21376;50.954;4.716;2022-08-19T11:44:53;9.68;;;3.20;;
35239;SDS011;21376;50.954;4.716;2022-08-19T11:49:52;5.10;;;2.65;;
35239;SDS011;21376;50.954;4.716;2022-08-19T11:52:19;3.40;;;3.10;;
35239;SDS011;21376;50.954;4.716;2022-08-19T11:54:48;4.80;;;3.55;;
35239;SDS011;21376;50.954;4.716;2022-08-19T11:59:48;6.47;;;3.85;;
35239;SDS011;21376;50.954;4.716;2022-08-19T12:05:00;6.97;;;4.25;;
35239;SDS011;21376;50.954;4.716;2022-08-19T12:07:34;5.65;;;4.18;;
35239;SDS011;21376;50.954;4.716;2022-08-19T12:10:03;6.47;;;4.80;;
35239;SDS011;21376;50.954;4.716;2022-08-19T12:12:32;5.90;;;4.43;;
35239;SDS011;21376;50.954;4.716;2022-08-19T12:15:13;8.88;;;5.03;;
35239;SDS011;21376;50.954;4.716;2022-08-19T12:17:42;5.93;;;4.47;;
35239;SDS011;21376;50.954;4.716;2022-08-19T12:20:09;5.65;;;4.95;;
35239;SDS011;21376;50.954;4.716;2022-08-19T12:22:39;4.90;;;4.10;;
35239;SDS011;21376;50.954;4.716;2022-08-19T12:25:10;7.45;;;4.43;;
35239;SDS011;21376;50.954;4.716;2022-08-19T12:27:37;4.75;;;3.58;;
35239;SDS011;21376;50.954;4.716;2022-08-19T12:30:05;4.03;;;3.58;;
35239;SDS011;21376;50.954;4.716;2022-08-19T12:32:37;5.38;;;3.78;;
35239;SDS011;21376;50.954;4.716;2022-08-19T12:35:03;5.38;;;3.38;;
35239;SDS011;21376;50.954;4.716;2022-08-19T12:39:59;9.20;;;3.08;;
35239;SDS011;21376;50.954;4.716;2022-08-19T12:42:28;3.20;;;2.90;;
35239;SDS011;21376;50.954;4.716;2022-08-19T12:44:55;6.65;;;3.30;;
35239;SDS011;21376;50.954;4.716;2022-08-19T12:47:21;6.15;;;3.80;;
35239;SDS011;21376;50.954;4.716;2022-08-19T12:49:49;4.38;;;3.03;;
35239;SDS011;21376;50.954;4.716;2022-08-19T12:52:16;4.72;;;3.72;;
35239;SDS011;21376;50.954;4.716;2022-08-19T12:54:42;8.55;;;4.43;;
35239;SDS011;21376;50.954;4.716;2022-08-19T12:57:09;5.55;;;4.10;;
35239;SDS011;21376;50.954;4.716;2022-08-19T12:59:59;7.82;;;5.43;;
35239;SDS011;21376;50.954;4.716;2022-08-19T13:02:54;7.43;;;4.68;;
35239;SDS011;21376;50.954;4.716;2022-08-19T13:05:24;5.50;;;4.40;;
35239;SDS011;21376;50.954;4.716;2022-08-19T13:10:38;8.23;;;5.25;;
35239;SDS011;21376;50.954;4.716;2022-08-19T13:30:02;9.27;;;5.97;;
35239;SDS011;21376;50.954;4.716;2022-08-19T13:32:57;6.82;;;6.13;;
35239;SDS011;21376;50.954;4.716;2022-08-19T13:35:53;7.13;;;5.28;;
35239;SDS011;21376;50.954;4.716;2022-08-19T13:38:26;5.60;;;4.88;;
35239;SDS011;21376;50.954;4.716;2022-08-19T13:41:03;6.57;;;5.13;;
35239;SDS011;21376;50.954;4.716;2022-08-19T13:43:36;6.45;;;4.25;;
35239;SDS011;21376;50.954;4.716;2022-08-19T13:46:07;5.47;;;4.07;;
35239;SDS011;21376;50.954;4.716;2022-08-19T13:48:38;5.43;;;4.03;;
35239;SDS011;21376;50.954;4.716;2022-08-19T13:51:18;6.28;;;3.90;;
35239;SDS011;21376;50.954;4.716;2022-08-19T13:53:47;6.88;;;3.85;;
35239;SDS011;21376;50.954;4.716;2022-08-19T13:56:13;4.10;;;3.03;;
35239;SDS011;21376;50.954;4.716;2022-08-19T13:58:43;5.28;;;3.97;;
35239;SDS011;21376;50.954;4.716;2022-08-19T14:01:12;5.25;;;3.20;;
35239;SDS011;21376;50.954;4.716;2022-08-19T14:03:49;4.68;;;3.67;;
35239;SDS011;21376;50.954;4.716;2022-08-19T14:06:16;8.18;;;3.88;;
35239;SDS011;21376;50.954;4.716;2022-08-19T14:08:45;4.75;;;4.00;;
35239;SDS011;21376;50.954;4.716;2022-08-19T14:11:14;5.80;;;3.00;;
35239;SDS011;21376;50.954;4.716;2022-08-19T14:16:10;7.57;;;3.05;;
35239;SDS011;21376;50.954;4.716;2022-08-19T14:18:39;5.57;;;2.88;;
35239;SDS011;21376;50.954;4.716;2022-08-19T14:23:50;3.75;;;3.10;;
35239;SDS011;21376;50.954;4.716;2022-08-19T14:26:17;4.72;;;2.17;;
35239;SDS011;21376;50.954;4.716;2022-08-19T14:28:45;18.02;;;3.13;;
35239;SDS011;21376;50.954;4.716;2022-08-19T14:31:11;2.47;;;1.95;;
35239;SDS011;21376;50.954;4.716;2022-08-19T14:33:46;3.70;;;1.90;;
35239;SDS011;21376;50.954;4.716;2022-08-19T14:36:12;2.88;;;2.00;;
35239;SDS011;21376;50.954;4.716;2022-08-19T14:46:08;2.75;;;1.90;;
35239;SDS011;21376;50.954;4.716;2022-08-19T14:48:36;3.22;;;1.58;;
35239;SDS011;21376;50.954;4.716;2022-08-19T14:51:05;5.35;;;1.70;;
35239;SDS011;21376;50.954;4.716;2022-08-19T14:53:32;3.08;;;1.40;;
35239;SDS011;21376;50.954;4.716;2022-08-19T14:56:13;3.83;;;1.60;;
35239;SDS011;21376;50.954;4.716;2022-08-19T14:58:43;3.25;;;1.55;;
35239;SDS011;21376;50.954;4.716;2022-08-19T15:01:09;2.78;;;1.85;;
35239;SDS011;21376;50.954;4.716;2022-08-19T15:03:36;5.53;;;2.25;;
35239;SDS011;21376;50.954;4.716;2022-08-19T15:06:03;5.88;;;2.08;;
35239;SDS011;21376;50.954;4.716;2022-08-19T15:08:36;3.72;;;1.60;;
35239;SDS011;21376;50.954;4.716;2022-08-19T15:11:10;1.77;;;1.30;;
35239;SDS011;21376;50.954;4.716;2022-08-19T15:13:40;2.70;;;1.48;;
35239;SDS011;21376;50.954;4.716;2022-08-19T15:16:10;1.95;;;1.35;;
35239;SDS011;21376;50.954;4.716;2022-08-19T15:18:37;3.50;;;1.90;;
35239;SDS011;21376;50.954;4.716;2022-08-19T15:21:03;7.00;;;1.73;;
35239;SDS011;21376;50.954;4.716;2022-08-19T15:23:29;3.03;;;2.10;;
35239;SDS011;21376;50.954;4.716;2022-08-19T15:25:57;3.65;;;1.65;;
35239;SDS011;21376;50.954;4.716;2022-08-19T15:28:26;4.57;;;1.90;;
35239;SDS011;21376;50.954;4.716;2022-08-19T15:30:51;4.28;;;1.60;;
35239;SDS011;21376;50.954;4.716;2022-08-19T15:33:18;4.53;;;1.75;;
35239;SDS011;21376;50.954;4.716;2022-08-19T15:35:45;4.80;;;2.00;;
35239;SDS011;21376;50.954;4.716;2022-08-19T15:38:14;2.80;;;1.45;;
35239;SDS011;21376;50.954;4.716;2022-08-19T15:40:41;2.95;;;1.30;;
35239;SDS011;21376;50.954;4.716;2022-08-19T15:43:11;3.33;;;1.48;;
35239;SDS011;21376;50.954;4.716;2022-08-19T15:45:45;1.38;;;1.13;;
35239;SDS011;21376;50.954;4.716;2022-08-19T15:48:43;2.00;;;1.25;;
35239;SDS011;21376;50.954;4.716;2022-08-19T15:51:09;3.78;;;1.30;;
35239;SDS011;21376;50.954;4.716;2022-08-19T15:53:38;1.50;;;1.10;;
35239;SDS011;21376;50.954;4.716;2022-08-19T15:56:06;2.25;;;1.00;;
35239;SDS011;21376;50.954;4.716;2022-08-19T15:58:33;1.05;;;0.80;;
35239;SDS011;21376;50.954;4.716;2022-08-19T16:01:18;2.05;;;0.82;;
35239;SDS011;21376;50.954;4.716;2022-08-19T16:03:58;2.40;;;0.82;;
35239;SDS011;21376;50.954;4.716;2022-08-19T16:06:45;4.80;;;0.98;;
35239;SDS011;21376;50.954;4.716;2022-08-19T16:09:11;2.28;;;0.88;;
35239;SDS011;21376;50.954;4.716;2022-08-19T16:11:39;1.92;;;0.70;;
35239;SDS011;21376;50.954;4.716;2022-08-19T16:14:06;1.58;;;0.70;;
35239;SDS011;21376;50.954;4.716;2022-08-19T16:16:36;1.42;;;0.70;;
35239;SDS011;21376;50.954;4.716;2022-08-19T16:24:05;1.48;;;0.70;;
35239;SDS011;21376;50.954;4.716;2022-08-19T16:26:33;1.08;;;0.63;;
35239;SDS011;21376;50.954;4.716;2022-08-19T16:29:02;1.02;;;0.60;;
35239;SDS011;21376;50.954;4.716;2022-08-19T16:31:30;0.98;;;0.75;;
35239;SDS011;21376;50.954;4.716;2022-08-19T16:33:58;1.83;;;0.70;;
35239;SDS011;21376;50.954;4.716;2022-08-19T16:36:30;0.68;;;0.60;;
35239;SDS011;21376;50.954;4.716;2022-08-19T16:38:59;2.83;;;0.80;;
35239;SDS011;21376;50.954;4.716;2022-08-19T16:41:25;2.70;;;0.82;;
35239;SDS011;21376;50.954;4.716;2022-08-19T16:43:52;1.63;;;0.80;;
35239;SDS011;21376;50.954;4.716;2022-08-19T16:48:49;2.38;;;0.70;;
35239;SDS011;21376;50.954;4.716;2022-08-19T16:51:16;1.45;;;0.90;;
35239;SDS011;21376;50.954;4.716;2022-08-19T16:53:45;3.13;;;1.15;;
35239;SDS011;21376;50.954;4.716;2022-08-19T16:56:13;2.78;;;0.85;;
35239;SDS011;21376;50.954;4.716;2022-08-19T16:58:41;1.00;;;0.90;;
35239;SDS011;21376;50.954;4.716;2022-08-19T17:01:09;5.05;;;1.10;;
35239;SDS011;21376;50.954;4.716;2022-08-19T17:03:38;2.38;;;1.00;;
35239;SDS011;21376;50.954;4.716;2022-08-19T17:06:13;4.15;;;1.20;;
35239;SDS011;21376;50.954;4.716;2022-08-19T17:08:51;2.60;;;1.30;;
35239;SDS011;21376;50.954;4.716;2022-08-19T17:11:29;2.90;;;1.20;;
35239;SDS011;21376;50.954;4.716;2022-08-19T17:14:01;3.70;;;1.50;;
35239;SDS011;21376;50.954;4.716;2022-08-19T17:16:41;3.88;;;1.27;;
35239;SDS011;21376;50.954;4.716;2022-08-19T17:19:07;2.28;;;1.40;;